Time;durP1;ratioP1;P1;durP2;ratioP2;P2;SDS_P1;SDS_P2;PMS_P1;PMS_P2;Temp;Humidity;BMP_temperature;BMP_pressure;BME280_temperature;BME280_humidity;BME280_pressure;Samples;Min_cycle;Max_cycle;Signal;HPM_P1;HPM_P2
2022/05/24 00:00:09;;;;;;;23.60;9.13;;;;;;;;;;4420561;32;20655;-54
2022/05/24 00:02:35;;;;;;;10.27;8.00;;;;;;;;;;4406277;32;20600;-54
2022/05/24 00:05:00;;;;;;;10.60;7.95;;;;;;;;;;4405479;32;20233;-54
2022/05/24 00:07:26;;;;;;;13.27;8.40;;;;;;;;;;4424374;32;20356;-53
2022/05/24 00:09:52;;;;;;;9.75;7.75;;;;;;;;;;4436201;32;20302;-54
2022/05/24 00:12:17;;;;;;;11.80;8.10;;;;;;;;;;4436324;32;20281;-54
2022/05/24 00:17:27;;;;;;;12.93;8.60;;;;;;;;;;4436268;32;20251;-54
2022/05/24 00:19:52;;;;;;;13.52;7.93;;;;;;;;;;4435916;32;20209;-53
2022/05/24 00:22:18;;;;;;;11.65;8.85;;;;;;;;;;4424528;32;20683;-53
2022/05/24 00:24:43;;;;;;;12.35;8.20;;;;;;;;;;4420581;32;20217;-53
2022/05/24 00:27:09;;;;;;;11.95;8.63;;;;;;;;;;4420492;32;20241;-53
2022/05/24 00:29:35;;;;;;;14.30;8.95;;;;;;;;;;4420700;32;20213;-53
2022/05/24 00:32:00;;;;;;;13.23;9.00;;;;;;;;;;4420334;32;20205;-53
2022/05/24 00:34:26;;;;;;;11.70;8.70;;;;;;;;;;4420577;32;20633;-53
2022/05/24 00:36:51;;;;;;;12.50;8.30;;;;;;;;;;4427686;32;20285;-53
2022/05/24 00:39:17;;;;;;;12.57;9.05;;;;;;;;;;4409043;32;20253;-53
2022/05/24 00:41:52;;;;;;;14.68;9.98;;;;;;;;;;4420245;32;20649;-53
2022/05/24 00:44:31;;;;;;;15.57;9.15;;;;;;;;;;4420585;32;20197;-53
2022/05/24 00:47:02;;;;;;;12.37;8.90;;;;;;;;;;4404935;32;20229;-53
2022/05/24 00:49:34;;;;;;;12.05;8.93;;;;;;;;;;4405663;32;20655;-54
2022/05/24 00:52:08;;;;;;;13.75;8.70;;;;;;;;;;4405111;32;20274;-53
2022/05/24 00:54:34;;;;;;;14.20;8.32;;;;;;;;;;4405959;32;20258;-53
2022/05/24 00:57:13;;;;;;;17.77;8.25;;;;;;;;;;4416865;32;20225;-53
2022/05/24 00:59:48;;;;;;;11.82;8.73;;;;;;;;;;4404422;32;20217;-54
2022/05/24 01:02:14;;;;;;;10.15;7.85;;;;;;;;;;4404869;32;20251;-54
2022/05/24 01:04:39;;;;;;;15.73;9.70;;;;;;;;;;4419675;32;20512;-53
2022/05/24 01:07:05;;;;;;;12.45;8.32;;;;;;;;;;4419202;32;20677;-53
2022/05/24 01:09:38;;;;;;;21.90;13.70;;;;;;;;;;4419373;32;20277;-53
2022/05/24 01:12:13;;;;;;;36.30;15.35;;;;;;;;;;4419309;32;20251;-53
2022/05/24 01:14:39;;;;;;;43.08;20.05;;;;;;;;;;4419730;32;20239;-54
2022/05/24 01:17:06;;;;;;;40.38;21.40;;;;;;;;;;4419151;32;20552;-54
2022/05/24 01:20:00;;;;;;;40.30;18.62;;;;;;;;;;4419548;32;20276;-55
2022/05/24 01:22:51;;;;;;;44.38;19.17;;;;;;;;;;4403139;32;20224;-53
2022/05/24 01:25:20;;;;;;;31.30;15.98;;;;;;;;;;4419372;32;20225;-53
2022/05/24 01:27:46;;;;;;;30.83;16.77;;;;;;;;;;4419510;32;20319;-55
2022/05/24 01:30:12;;;;;;;30.98;14.80;;;;;;;;;;4419463;32;20589;-53
2022/05/24 01:38:12;;;;;;;27.77;14.57;;;;;;;;;;4419165;32;20361;-55
2022/05/24 01:40:37;;;;;;;27.87;14.32;;;;;;;;;;4419614;32;20231;-54
2022/05/24 01:43:03;;;;;;;28.62;13.73;;;;;;;;;;4419376;32;20236;-54
2022/05/24 01:45:35;;;;;;;22.15;13.02;;;;;;;;;;4411843;32;20244;-54
2022/05/24 01:48:28;;;;;;;23.48;13.73;;;;;;;;;;4403679;32;20442;-54
2022/05/24 01:50:54;;;;;;;25.55;13.85;;;;;;;;;;4395796;32;20292;-54
2022/05/24 01:53:27;;;;;;;24.05;12.77;;;;;;;;;;4404185;32;20221;-53
2022/05/24 01:55:56;;;;;;;24.83;11.32;;;;;;;;;;4404239;32;20263;-53
2022/05/24 01:58:26;;;;;;;16.27;10.40;;;;;;;;;;4404092;32;20383;-53
2022/05/24 02:01:20;;;;;;;22.37;12.25;;;;;;;;;;4403837;32;20293;-54
2022/05/24 02:03:45;;;;;;;21.55;13.43;;;;;;;;;;4377232;32;20554;-53
2022/05/24 02:06:20;;;;;;;22.17;13.88;;;;;;;;;;4410904;32;20296;-53
2022/05/24 02:08:45;;;;;;;28.42;14.65;;;;;;;;;;4419083;32;20221;-53
2022/05/24 02:11:11;;;;;;;24.50;14.75;;;;;;;;;;4418641;32;20299;-54
2022/05/24 02:13:41;;;;;;;34.17;15.48;;;;;;;;;;4418479;32;20232;-53
2022/05/24 02:16:11;;;;;;;32.55;15.93;;;;;;;;;;4418458;32;20213;-53
2022/05/24 02:18:39;;;;;;;33.17;15.75;;;;;;;;;;4418978;32;20345;-53
2022/05/24 02:21:05;;;;;;;24.98;14.23;;;;;;;;;;4418282;32;20233;-53
2022/05/24 02:23:39;;;;;;;18.08;12.63;;;;;;;;;;4418944;32;20220;-53
2022/05/24 02:26:08;;;;;;;25.05;13.85;;;;;;;;;;4418493;32;20208;-53
2022/05/24 02:28:34;;;;;;;30.33;12.98;;;;;;;;;;4421045;32;20236;-53
2022/05/24 02:31:03;;;;;;;19.58;11.60;;;;;;;;;;4433898;32;20244;-53
2022/05/24 02:33:29;;;;;;;17.40;11.15;;;;;;;;;;4433824;32;20232;-53
2022/05/24 02:35:54;;;;;;;21.15;10.25;;;;;;;;;;4433720;32;20320;-53
2022/05/24 02:38:20;;;;;;;20.88;10.40;;;;;;;;;;4426996;32;20229;-53
2022/05/24 02:43:30;;;;;;;14.32;10.85;;;;;;;;;;4418830;32;20258;-53
2022/05/24 02:45:56;;;;;;;17.62;11.00;;;;;;;;;;4407984;32;20213;-53
2022/05/24 02:48:22;;;;;;;22.95;10.15;;;;;;;;;;4411997;32;20444;-53
2022/05/24 02:50:47;;;;;;;21.37;11.25;;;;;;;;;;4407356;32;20684;-53
2022/05/24 02:53:13;;;;;;;17.15;10.43;;;;;;;;;;4403652;32;20263;-54
2022/05/24 02:55:38;;;;;;;15.35;9.70;;;;;;;;;;4409062;32;20209;-52
2022/05/24 02:58:04;;;;;;;16.48;10.43;;;;;;;;;;4418342;32;20317;-53
2022/05/24 03:00:29;;;;;;;10.88;9.05;;;;;;;;;;4418392;32;20216;-53
2022/05/24 03:02:55;;;;;;;17.85;9.38;;;;;;;;;;4418692;32;20216;-54
2022/05/24 03:05:22;;;;;;;12.77;9.20;;;;;;;;;;4401977;32;20284;-53
2022/05/24 03:10:32;;;;;;;15.30;8.27;;;;;;;;;;4411109;32;20289;-53
2022/05/24 03:15:44;;;;;;;13.10;9.65;;;;;;;;;;4417912;32;20301;-54
2022/05/24 03:18:12;;;;;;;13.55;8.20;;;;;;;;;;4418112;32;20256;-54
2022/05/24 03:20:47;;;;;;;18.05;11.07;;;;;;;;;;4418433;32;20282;-54
2022/05/24 03:23:14;;;;;;;13.27;8.88;;;;;;;;;;4416975;32;20580;-54
2022/05/24 03:25:40;;;;;;;13.10;9.10;;;;;;;;;;4418104;32;20217;-54
2022/05/24 03:28:07;;;;;;;16.35;8.27;;;;;;;;;;4418081;32;20289;-54
2022/05/24 03:30:37;;;;;;;18.52;9.27;;;;;;;;;;4417912;32;20534;-54
2022/05/24 03:33:03;;;;;;;10.65;8.65;;;;;;;;;;4418246;32;20277;-54
2022/05/24 03:35:28;;;;;;;11.90;8.98;;;;;;;;;;4418321;32;20213;-54
2022/05/24 03:37:54;;;;;;;18.00;8.45;;;;;;;;;;4417557;32;20229;-54
2022/05/24 03:40:19;;;;;;;15.23;9.73;;;;;;;;;;4417678;32;20222;-53
2022/05/24 03:42:46;;;;;;;13.10;10.40;;;;;;;;;;4418002;32;20220;-53
2022/05/24 03:45:12;;;;;;;16.55;11.10;;;;;;;;;;4407320;32;20672;-54
2022/05/24 03:47:38;;;;;;;17.98;10.13;;;;;;;;;;4402453;32;20233;-54
2022/05/24 03:50:05;;;;;;;13.85;10.23;;;;;;;;;;4402726;32;20641;-54
2022/05/24 03:52:31;;;;;;;16.40;10.35;;;;;;;;;;4412258;32;20629;-54
2022/05/24 03:54:56;;;;;;;20.33;12.77;;;;;;;;;;4418050;32;20303;-54
2022/05/24 04:00:07;;;;;;;28.30;13.65;;;;;;;;;;4417584;32;20339;-54
2022/05/24 04:02:33;;;;;;;20.60;13.50;;;;;;;;;;4404325;32;20221;-54
2022/05/24 04:04:58;;;;;;;33.17;15.38;;;;;;;;;;4417533;32;20298;-54
2022/05/24 04:07:24;;;;;;;27.13;13.25;;;;;;;;;;4417564;32;20233;-54
2022/05/24 04:09:49;;;;;;;38.80;16.60;;;;;;;;;;4417660;32;20610;-54
2022/05/24 04:12:15;;;;;;;53.15;23.65;;;;;;;;;;4417444;32;20221;-54
2022/05/24 04:14:40;;;;;;;53.65;24.87;;;;;;;;;;4417443;32;20291;-53
2022/05/24 04:17:06;;;;;;;47.35;23.25;;;;;;;;;;4417483;32;20364;-54
2022/05/24 04:19:31;;;;;;;48.33;23.45;;;;;;;;;;4418132;32;20364;-53
2022/05/24 04:21:57;;;;;;;47.35;23.42;;;;;;;;;;4417599;32;20212;-54
2022/05/24 04:24:22;;;;;;;31.65;18.37;;;;;;;;;;4417097;32;20574;-54
2022/05/24 04:26:48;;;;;;;36.50;18.20;;;;;;;;;;4402298;32;20213;-54
2022/05/24 04:29:13;;;;;;;35.42;15.07;;;;;;;;;;4402446;32;20273;-53
2022/05/24 04:31:39;;;;;;;28.35;13.23;;;;;;;;;;4402342;32;20217;-54
2022/05/24 04:34:05;;;;;;;19.98;12.18;;;;;;;;;;4402462;32;20225;-53
2022/05/24 04:36:33;;;;;;;15.27;10.05;;;;;;;;;;4404323;32;20255;-54
2022/05/24 04:38:59;;;;;;;17.33;10.25;;;;;;;;;;4415833;32;20228;-54
2022/05/24 04:44:09;;;;;;;16.55;10.05;;;;;;;;;;4406439;32;20247;-54
2022/05/24 04:49:21;;;;;;;17.50;9.43;;;;;;;;;;4417951;32;20240;-54
2022/05/24 04:51:46;;;;;;;14.38;9.48;;;;;;;;;;4419849;32;20526;-55
2022/05/24 04:54:12;;;;;;;17.17;10.43;;;;;;;;;;4420564;32;20319;-54
2022/05/24 04:56:37;;;;;;;15.75;9.73;;;;;;;;;;4420511;32;20281;-54
2022/05/24 04:59:03;;;;;;;13.02;9.93;;;;;;;;;;4410365;32;20234;-54
2022/05/24 05:01:28;;;;;;;15.38;10.63;;;;;;;;;;4405009;32;20243;-54
2022/05/24 05:03:54;;;;;;;16.45;9.50;;;;;;;;;;4417904;32;20252;-54
2022/05/24 05:06:20;;;;;;;15.32;9.68;;;;;;;;;;4405728;32;20245;-54
2022/05/24 05:08:45;;;;;;;16.40;10.15;;;;;;;;;;4420046;32;20271;-54
2022/05/24 05:11:11;;;;;;;14.05;10.27;;;;;;;;;;4419765;32;20284;-54
2022/05/24 05:13:36;;;;;;;17.83;10.23;;;;;;;;;;4420139;32;20306;-54
2022/05/24 05:16:02;;;;;;;24.20;10.20;;;;;;;;;;4419716;32;20232;-54
2022/05/24 05:18:28;;;;;;;16.27;11.18;;;;;;;;;;4419737;32;20306;-54
2022/05/24 05:20:53;;;;;;;20.55;10.60;;;;;;;;;;4417113;32;20727;-54
2022/05/24 05:23:19;;;;;;;20.45;12.95;;;;;;;;;;4404576;32;20257;-54
2022/05/24 05:25:49;;;;;;;20.37;12.93;;;;;;;;;;4404385;32;20556;-54
2022/05/24 05:28:16;;;;;;;18.98;11.48;;;;;;;;;;4404657;32;20299;-54
2022/05/24 05:33:26;;;;;;;21.65;12.55;;;;;;;;;;4404814;32;20935;-53
2022/05/24 05:35:51;;;;;;;15.45;11.10;;;;;;;;;;4404776;32;20288;-54
2022/05/24 05:38:18;;;;;;;17.17;11.68;;;;;;;;;;4419371;32;20332;-54
2022/05/24 05:40:43;;;;;;;16.67;12.60;;;;;;;;;;4419227;32;20232;-54
2022/05/24 05:43:10;;;;;;;22.30;11.30;;;;;;;;;;4419510;32;20267;-54
2022/05/24 05:45:36;;;;;;;23.20;11.50;;;;;;;;;;4409283;32;21358;-55
2022/05/24 05:48:01;;;;;;;20.15;10.27;;;;;;;;;;4402739;32;20299;-53
2022/05/24 05:50:27;;;;;;;18.12;10.35;;;;;;;;;;4404003;32;20371;-55
2022/05/24 05:52:52;;;;;;;21.67;10.73;;;;;;;;;;4404423;32;20230;-54
2022/05/24 05:55:21;;;;;;;17.48;11.18;;;;;;;;;;4404065;32;20201;-54
2022/05/24 05:57:47;;;;;;;16.75;11.23;;;;;;;;;;4405334;32;20405;-54
2022/05/24 06:00:14;;;;;;;18.35;10.35;;;;;;;;;;4418963;32;20209;-54
2022/05/24 06:02:41;;;;;;;16.23;9.63;;;;;;;;;;4419702;32;20259;-53
2022/05/24 06:05:07;;;;;;;17.80;10.10;;;;;;;;;;4417924;32;20715;-55
2022/05/24 06:07:33;;;;;;;22.05;10.85;;;;;;;;;;4417746;32;20683;-54
2022/05/24 06:09:59;;;;;;;16.52;10.40;;;;;;;;;;4417612;32;20295;-54
2022/05/24 06:12:25;;;;;;;15.20;9.45;;;;;;;;;;4419031;32;20263;-54
2022/05/24 06:14:50;;;;;;;12.52;9.63;;;;;;;;;;4418029;32;20319;-54
2022/05/24 06:17:16;;;;;;;14.80;9.82;;;;;;;;;;4415640;32;20245;-54
2022/05/24 06:19:43;;;;;;;16.58;9.90;;;;;;;;;;4403432;32;20699;-56
2022/05/24 06:22:09;;;;;;;16.45;9.88;;;;;;;;;;4389775;32;20310;-54
2022/05/24 06:24:35;;;;;;;14.65;11.00;;;;;;;;;;4403702;32;20729;-55
2022/05/24 06:27:00;;;;;;;12.93;9.70;;;;;;;;;;4403422;32;20575;-53
2022/05/24 06:29:26;;;;;;;14.40;10.75;;;;;;;;;;4403045;32;20314;-53
2022/05/24 06:31:51;;;;;;;15.02;9.20;;;;;;;;;;4403480;32;20299;-54
2022/05/24 06:34:18;;;;;;;13.82;10.23;;;;;;;;;;4417738;32;20272;-54
2022/05/24 06:36:43;;;;;;;13.52;10.38;;;;;;;;;;4418710;32;20209;-53
2022/05/24 06:39:09;;;;;;;12.90;8.93;;;;;;;;;;4418636;32;20333;-53
2022/05/24 06:41:34;;;;;;;15.20;10.15;;;;;;;;;;4418689;32;20268;-53
2022/05/24 06:44:00;;;;;;;12.57;9.48;;;;;;;;;;4418849;32;20586;-53
2022/05/24 06:46:26;;;;;;;15.10;10.02;;;;;;;;;;4418608;32;20205;-53
2022/05/24 06:48:51;;;;;;;18.33;10.10;;;;;;;;;;4418354;32;20320;-53
2022/05/24 06:51:21;;;;;;;11.90;9.13;;;;;;;;;;4419087;32;20607;-54
2022/05/24 06:53:48;;;;;;;10.73;8.77;;;;;;;;;;4418936;32;20760;-55
2022/05/24 06:56:15;;;;;;;16.37;9.82;;;;;;;;;;4418337;32;20553;-54
2022/05/24 06:58:41;;;;;;;11.57;9.02;;;;;;;;;;4411147;32;20221;-54
2022/05/24 07:03:55;;;;;;;11.70;8.65;;;;;;;;;;4418316;32;20275;-54
2022/05/24 07:06:21;;;;;;;11.52;9.05;;;;;;;;;;4409485;32;20292;-54
2022/05/24 07:08:48;;;;;;;15.10;9.07;;;;;;;;;;4403170;32;20648;-55
2022/05/24 07:11:16;;;;;;;17.87;9.68;;;;;;;;;;4425303;32;20641;-54
2022/05/24 07:13:42;;;;;;;13.43;8.55;;;;;;;;;;4424709;32;20296;-54
2022/05/24 07:16:08;;;;;;;16.17;10.35;;;;;;;;;;4402529;32;20282;-55
2022/05/24 07:18:35;;;;;;;15.13;9.48;;;;;;;;;;4403321;32;20251;-53
2022/05/24 07:21:01;;;;;;;18.73;10.38;;;;;;;;;;4402458;32;20232;-54
2022/05/24 07:23:26;;;;;;;15.05;8.88;;;;;;;;;;4402641;32;20292;-53
2022/05/24 07:25:54;;;;;;;13.60;10.32;;;;;;;;;;4387539;32;20316;-54
2022/05/24 07:28:21;;;;;;;18.92;9.05;;;;;;;;;;4403416;32;20752;-54
2022/05/24 07:30:48;;;;;;;10.82;8.82;;;;;;;;;;4416866;32;20310;-56
2022/05/24 07:33:13;;;;;;;13.15;8.32;;;;;;;;;;4418058;32;20229;-54
2022/05/24 07:35:40;;;;;;;16.60;9.60;;;;;;;;;;4418372;32;20189;-54
2022/05/24 07:38:10;;;;;;;13.65;9.38;;;;;;;;;;4417724;32;20827;-54
2022/05/24 07:46:10;;;;;;;16.42;10.00;;;;;;;;;;4417903;32;20236;-54
2022/05/24 07:48:36;;;;;;;76.35;13.40;;;;;;;;;;4418169;32;20305;-54
2022/05/24 07:51:03;;;;;;;16.70;11.20;;;;;;;;;;4417965;32;20244;-54
2022/05/24 07:53:28;;;;;;;15.90;9.07;;;;;;;;;;4417907;32;20251;-54
2022/05/24 07:55:55;;;;;;;18.48;9.38;;;;;;;;;;4416748;32;20623;-54
2022/05/24 07:58:20;;;;;;;56.28;12.98;;;;;;;;;;4415794;32;20251;-54
2022/05/24 08:00:46;;;;;;;13.48;9.02;;;;;;;;;;4418198;32;20213;-53
2022/05/24 08:03:12;;;;;;;19.55;9.63;;;;;;;;;;4418021;32;20415;-55
2022/05/24 08:05:38;;;;;;;46.50;13.30;;;;;;;;;;4414105;32;20658;-54
2022/05/24 08:08:05;;;;;;;39.83;12.32;;;;;;;;;;4432482;32;20259;-54
2022/05/24 08:10:31;;;;;;;20.90;10.75;;;;;;;;;;4418125;32;20286;-53
2022/05/24 08:12:57;;;;;;;15.90;9.55;;;;;;;;;;4405013;32;20649;-53
2022/05/24 08:15:24;;;;;;;13.00;8.27;;;;;;;;;;4404008;32;20239;-53
2022/05/24 08:17:50;;;;;;;12.43;8.73;;;;;;;;;;4405456;32;20229;-54
2022/05/24 08:20:16;;;;;;;12.15;8.80;;;;;;;;;;4405544;32;20226;-53
2022/05/24 08:22:41;;;;;;;16.27;9.30;;;;;;;;;;4403082;32;20810;-53
2022/05/24 08:25:09;;;;;;;14.73;9.77;;;;;;;;;;4406405;32;20263;-55
2022/05/24 08:27:34;;;;;;;11.77;8.98;;;;;;;;;;4419418;32;20632;-54
2022/05/24 08:30:00;;;;;;;19.17;10.60;;;;;;;;;;4419454;32;20307;-54
2022/05/24 08:32:26;;;;;;;11.90;9.35;;;;;;;;;;4420580;32;20342;-53
2022/05/24 08:34:52;;;;;;;15.18;10.07;;;;;;;;;;4434760;32;20279;-53
2022/05/24 08:37:18;;;;;;;11.38;9.48;;;;;;;;;;4435999;32;20657;-54
2022/05/24 08:39:44;;;;;;;13.20;8.95;;;;;;;;;;4436076;32;20332;-55
2022/05/24 08:42:54;;;;;;;13.05;9.13;;;;;;;;;;4421742;32;20261;-54
2022/05/24 08:48:29;;;;;;;8.65;7.20;;;;;;;;;;4419882;32;20267;-53
2022/05/24 08:51:13;;;;;;;11.93;7.82;;;;;;;;;;4420253;32;20218;-54
2022/05/24 08:53:43;;;;;;;8.65;7.75;;;;;;;;;;4420040;32;20644;-53
2022/05/24 08:56:14;;;;;;;15.65;9.70;;;;;;;;;;4419941;32;20308;-53
2022/05/24 08:58:50;;;;;;;14.35;7.53;;;;;;;;;;4420264;32;20259;-53
2022/05/24 09:01:25;;;;;;;19.37;8.23;;;;;;;;;;4420359;32;20378;-53
2022/05/24 09:03:51;;;;;;;9.85;7.37;;;;;;;;;;4419629;32;20300;-54
2022/05/24 09:06:27;;;;;;;9.73;7.65;;;;;;;;;;4411627;32;20226;-54
2022/05/24 09:09:15;;;;;;;9.77;8.45;;;;;;;;;;4405210;32;20244;-54
2022/05/24 09:12:07;;;;;;;14.07;9.48;;;;;;;;;;4404881;32;20289;-55
2022/05/24 09:18:19;;;;;;;14.02;8.52;;;;;;;;;;4404827;32;20260;-54
2022/05/24 09:20:46;;;;;;;13.50;8.18;;;;;;;;;;4404896;32;20582;-54
2022/05/24 09:23:14;;;;;;;10.57;8.50;;;;;;;;;;4420186;32;20237;-54
2022/05/24 09:26:01;;;;;;;10.02;7.82;;;;;;;;;;4419826;32;20297;-54
2022/05/24 09:28:53;;;;;;;9.80;7.68;;;;;;;;;;4419251;32;20303;-54
2022/05/24 09:31:27;;;;;;;11.55;7.65;;;;;;;;;;4419953;32;20625;-54
2022/05/24 09:34:07;;;;;;;8.63;6.57;;;;;;;;;;4419906;32;20288;-54
2022/05/24 09:36:38;;;;;;;9.77;6.90;;;;;;;;;;4419865;32;20258;-54
2022/05/24 09:39:19;;;;;;;9.55;7.50;;;;;;;;;;4419421;32;20244;-54
2022/05/24 09:42:01;;;;;;;14.50;6.87;;;;;;;;;;4405657;32;20277;-54
2022/05/24 09:44:49;;;;;;;15.93;7.43;;;;;;;;;;4418554;32;20284;-53
2022/05/24 09:47:41;;;;;;;15.98;7.93;;;;;;;;;;4404311;32;20273;-53
2022/05/24 09:50:21;;;;;;;12.82;7.50;;;;;;;;;;4404456;32;22029;-53
2022/05/24 09:53:01;;;;;;;9.07;6.20;;;;;;;;;;4419453;32;20347;-54
2022/05/24 09:55:28;;;;;;;12.45;6.80;;;;;;;;;;4419674;32;20313;-53
2022/05/24 09:57:54;;;;;;;7.78;5.78;;;;;;;;;;4416978;32;20334;-54
2022/05/24 10:00:23;;;;;;;12.48;7.03;;;;;;;;;;4427626;32;20621;-54
2022/05/24 10:03:02;;;;;;;13.68;6.85;;;;;;;;;;4421252;32;20527;-54
2022/05/24 10:05:28;;;;;;;9.43;6.05;;;;;;;;;;4404465;32;20271;-54
2022/05/24 10:08:12;;;;;;;9.95;6.32;;;;;;;;;;4404576;32;20222;-54
2022/05/24 10:10:41;;;;;;;8.15;6.22;;;;;;;;;;4404419;32;20301;-54
2022/05/24 10:13:14;;;;;;;8.02;5.80;;;;;;;;;;4404132;32;20288;-54
2022/05/24 10:15:44;;;;;;;9.48;6.12;;;;;;;;;;4404214;32;20284;-53
2022/05/24 10:18:31;;;;;;;13.10;6.50;;;;;;;;;;4411303;32;20247;-54
2022/05/24 10:21:06;;;;;;;10.73;6.15;;;;;;;;;;4418950;32;20595;-54
2022/05/24 10:23:38;;;;;;;15.25;6.07;;;;;;;;;;4419574;32;20276;-54
2022/05/24 10:26:22;;;;;;;12.05;6.35;;;;;;;;;;4418702;32;20217;-53
2022/05/24 10:29:01;;;;;;;10.65;5.78;;;;;;;;;;4419454;32;20213;-54
2022/05/24 10:31:45;;;;;;;14.13;5.65;;;;;;;;;;4419220;32;20252;-55
2022/05/24 10:40:52;;;;;;;11.00;5.68;;;;;;;;;;4418624;32;20236;-55
2022/05/24 10:43:40;;;;;;;14.02;5.80;;;;;;;;;;4407370;32;20264;-55
2022/05/24 10:46:20;;;;;;;12.13;5.15;;;;;;;;;;4406697;32;20193;-54
2022/05/24 10:49:02;;;;;;;16.90;6.62;;;;;;;;;;4416119;32;20248;-55
2022/05/24 10:51:47;;;;;;;18.00;5.32;;;;;;;;;;4404652;32;20229;-56
2022/05/24 10:54:29;;;;;;;10.63;4.12;;;;;;;;;;4418701;32;20259;-55
2022/05/24 10:57:10;;;;;;;7.35;3.47;;;;;;;;;;4418406;32;20219;-55
2022/05/24 10:59:53;;;;;;;17.58;4.93;;;;;;;;;;4415484;32;20669;-55
2022/05/24 11:02:32;;;;;;;10.18;3.80;;;;;;;;;;4418830;32;20641;-55
2022/05/24 11:05:07;;;;;;;13.10;4.53;;;;;;;;;;4418713;32;20198;-55
2022/05/24 11:07:35;;;;;;;10.82;4.00;;;;;;;;;;4418600;32;20262;-55
2022/05/24 11:10:17;;;;;;;9.50;4.50;;;;;;;;;;4418489;32;20284;-54
2022/05/24 11:13:09;;;;;;;8.50;4.00;;;;;;;;;;4418656;32;20248;-54
2022/05/24 11:15:44;;;;;;;12.55;4.30;;;;;;;;;;4418275;32;20240;-54
2022/05/24 11:18:23;;;;;;;11.00;4.62;;;;;;;;;;4418375;32;20240;-54
2022/05/24 11:20:59;;;;;;;14.85;3.87;;;;;;;;;;4418390;32;20645;-54
2022/05/24 11:23:36;;;;;;;10.38;4.07;;;;;;;;;;4403720;32;20217;-54
2022/05/24 11:26:32;;;;;;;7.55;4.50;;;;;;;;;;4403136;32;20249;-54
2022/05/24 11:29:43;;;;;;;5.60;3.20;;;;;;;;;;4403101;32;20248;-53
2022/05/24 11:32:10;;;;;;;17.62;4.00;;;;;;;;;;4389182;32;20249;-53
2022/05/24 11:34:41;;;;;;;16.50;4.80;;;;;;;;;;4403227;32;20206;-53
2022/05/24 11:37:13;;;;;;;11.48;4.03;;;;;;;;;;4413326;32;20261;-54
2022/05/24 11:39:41;;;;;;;8.55;4.00;;;;;;;;;;4403283;32;20209;-54
2022/05/24 11:42:19;;;;;;;10.13;3.72;;;;;;;;;;4415851;32;20655;-55
2022/05/24 11:44:45;;;;;;;16.50;5.37;;;;;;;;;;4410249;32;20257;-54
2022/05/24 11:47:37;;;;;;;23.45;4.25;;;;;;;;;;4405715;32;20314;-55
2022/05/24 11:50:07;;;;;;;21.42;4.30;;;;;;;;;;4406031;32;20646;-55
2022/05/24 11:52:45;;;;;;;7.53;3.33;;;;;;;;;;4428818;32;20664;-54
2022/05/24 11:55:36;;;;;;;11.10;3.40;;;;;;;;;;4436370;32;20233;-54
2022/05/24 11:58:32;;;;;;;9.43;4.10;;;;;;;;;;4433711;32;20269;-54
2022/05/24 12:01:07;;;;;;;14.50;3.87;;;;;;;;;;4393487;32;20243;-55
2022/05/24 12:09:22;;;;;;;15.10;4.40;;;;;;;;;;4405323;32;20228;-54
2022/05/24 12:12:08;;;;;;;8.40;4.15;;;;;;;;;;4419898;32;20232;-54
2022/05/24 12:14:37;;;;;;;11.23;3.67;;;;;;;;;;4421115;32;20263;-54
2022/05/24 12:17:05;;;;;;;5.97;3.28;;;;;;;;;;4420463;32;20276;-54
2022/05/24 12:19:43;;;;;;;21.67;4.18;;;;;;;;;;4420678;32;20225;-54
2022/05/24 12:22:17;;;;;;;10.05;3.35;;;;;;;;;;4420950;32;20336;-55
2022/05/24 12:24:51;;;;;;;13.45;4.55;;;;;;;;;;4421100;32;20902;-55
2022/05/24 12:27:28;;;;;;;10.70;4.20;;;;;;;;;;4420428;32;20266;-54
2022/05/24 12:29:59;;;;;;;13.75;4.22;;;;;;;;;;4420523;32;20278;-54
2022/05/24 12:32:28;;;;;;;6.37;3.75;;;;;;;;;;4420651;32;20291;-54
2022/05/24 12:35:04;;;;;;;9.02;4.00;;;;;;;;;;4414664;32;20359;-53
2022/05/24 12:37:31;;;;;;;8.05;4.10;;;;;;;;;;4412982;32;20684;-54
2022/05/24 12:40:06;;;;;;;4.93;3.17;;;;;;;;;;4419996;32;20727;-54
2022/05/24 12:42:32;;;;;;;13.07;4.12;;;;;;;;;;4420840;32;20338;-54
2022/05/24 12:45:00;;;;;;;6.15;3.47;;;;;;;;;;4416636;32;20724;-54
2022/05/24 12:47:26;;;;;;;10.15;3.67;;;;;;;;;;4408249;32;20795;-54
2022/05/24 12:49:55;;;;;;;11.85;4.37;;;;;;;;;;4420720;32;20315;-54
2022/05/24 12:52:22;;;;;;;13.85;4.00;;;;;;;;;;4420425;32;20240;-54
2022/05/24 12:54:50;;;;;;;14.23;3.47;;;;;;;;;;4420289;32;20197;-54
2022/05/24 12:57:23;;;;;;;21.73;4.25;;;;;;;;;;4420169;32;20265;-54
2022/05/24 12:59:57;;;;;;;8.00;3.58;;;;;;;;;;4420025;32;20201;-54
2022/05/24 13:02:50;;;;;;;13.10;3.65;;;;;;;;;;4420298;32;20251;-54
2022/05/24 13:05:33;;;;;;;15.48;4.57;;;;;;;;;;4417559;32;20307;-55
2022/05/24 13:08:00;;;;;;;9.65;4.70;;;;;;;;;;4420114;32;20530;-55
2022/05/24 13:10:28;;;;;;;11.00;4.25;;;;;;;;;;4419798;32;20245;-55
2022/05/24 13:13:05;;;;;;;11.85;3.97;;;;;;;;;;4420021;32;20224;-55
2022/05/24 13:15:41;;;;;;;8.15;3.58;;;;;;;;;;4419966;32;20201;-54
2022/05/24 13:18:10;;;;;;;14.20;4.10;;;;;;;;;;4420130;32;20225;-54
2022/05/24 13:20:56;;;;;;;8.38;3.33;;;;;;;;;;4420045;32;20229;-54
2022/05/24 13:23:32;;;;;;;8.00;2.70;;;;;;;;;;4420053;32;20337;-56
2022/05/24 13:26:04;;;;;;;10.75;3.47;;;;;;;;;;4419757;32;20204;-55
2022/05/24 13:28:43;;;;;;;12.00;3.47;;;;;;;;;;4419952;32;20557;-55
2022/05/24 13:33:55;;;;;;;19.37;3.90;;;;;;;;;;4413237;32;20276;-55
2022/05/24 13:36:29;;;;;;;12.52;3.28;;;;;;;;;;4403167;32;20233;-54
2022/05/24 13:39:03;;;;;;;14.32;4.25;;;;;;;;;;4414477;32;20221;-54
2022/05/24 13:42:03;;;;;;;6.47;3.55;;;;;;;;;;4419375;32;20705;-54
2022/05/24 13:44:33;;;;;;;7.87;3.70;;;;;;;;;;4386608;32;20578;-55
2022/05/24 13:47:00;;;;;;;12.07;3.42;;;;;;;;;;4404187;32;20244;-55
2022/05/24 13:49:43;;;;;;;9.88;3.22;;;;;;;;;;4404727;32;20213;-55
2022/05/24 13:52:36;;;;;;;10.68;3.50;;;;;;;;;;4404014;32;20600;-55
2022/05/24 13:55:22;;;;;;;10.40;3.97;;;;;;;;;;4404485;32;20189;-55
2022/05/24 13:57:59;;;;;;;8.45;3.25;;;;;;;;;;4404408;32;20284;-56
2022/05/24 14:00:48;;;;;;;7.50;3.45;;;;;;;;;;4418860;32;20197;-55
2022/05/24 14:03:26;;;;;;;10.30;3.75;;;;;;;;;;4419148;32;20253;-54
2022/05/24 14:06:21;;;;;;;11.10;3.45;;;;;;;;;;4418825;32;20718;-55
2022/05/24 14:08:50;;;;;;;15.07;2.87;;;;;;;;;;4418285;32;20361;-55
2022/05/24 14:11:25;;;;;;;22.73;4.22;;;;;;;;;;4418930;32;20287;-54
2022/05/24 14:13:51;;;;;;;14.32;3.70;;;;;;;;;;4419037;32;20247;-54
2022/05/24 14:16:18;;;;;;;12.40;4.15;;;;;;;;;;4418570;32;20205;-54
2022/05/24 14:18:44;;;;;;;11.05;3.75;;;;;;;;;;4418911;32;20557;-53
2022/05/24 14:21:10;;;;;;;6.70;3.37;;;;;;;;;;4418651;32;20228;-53
2022/05/24 14:23:36;;;;;;;12.18;3.37;;;;;;;;;;4418850;32;20269;-54
2022/05/24 14:28:22;;;;;;;8.38;3.55;;;;;;;;;;4481734;31;20390;-55
2022/05/24 14:30:48;;;;;;;14.63;3.85;;;;;;;;;;4464678;32;20230;-53
2022/05/24 14:33:17;;;;;;;14.35;3.87;;;;;;;;;;4471368;32;20316;-54
2022/05/24 14:35:43;;;;;;;7.95;3.20;;;;;;;;;;4477622;32;20241;-54
2022/05/24 14:38:08;;;;;;;7.60;2.72;;;;;;;;;;4472068;32;20248;-54
2022/05/24 14:40:38;;;;;;;9.50;3.60;;;;;;;;;;4462102;32;20212;-55
2022/05/24 14:43:07;;;;;;;11.32;3.92;;;;;;;;;;4462413;32;20262;-54
2022/05/24 14:45:33;;;;;;;11.10;3.87;;;;;;;;;;4463528;32;20269;-54
2022/05/24 14:47:58;;;;;;;11.40;3.95;;;;;;;;;;4462335;32;20268;-55
2022/05/24 14:50:24;;;;;;;11.82;3.62;;;;;;;;;;4462120;32;20619;-55
2022/05/24 14:52:50;;;;;;;15.57;4.15;;;;;;;;;;4462048;32;20219;-55
2022/05/24 14:55:25;;;;;;;10.23;3.40;;;;;;;;;;4462287;32;20285;-55
2022/05/24 14:57:51;;;;;;;14.13;3.72;;;;;;;;;;4463997;32;20296;-55
2022/05/24 15:00:18;;;;;;;9.82;3.97;;;;;;;;;;4463839;32;20260;-54
2022/05/24 15:02:44;;;;;;;8.60;2.87;;;;;;;;;;4462211;32;20254;-55
2022/05/24 15:05:10;;;;;;;12.07;2.95;;;;;;;;;;4462728;32;20553;-54
2022/05/24 15:15:51;;;;;;;7.32;3.37;;;;;;;;;;4475911;32;20219;-55
2022/05/24 15:18:16;;;;;;;6.50;3.20;;;;;;;;;;4477703;32;20378;-54
2022/05/24 15:20:45;;;;;;;8.10;3.15;;;;;;;;;;4474074;32;20260;-54
2022/05/24 15:23:14;;;;;;;10.23;3.53;;;;;;;;;;4461348;32;20216;-55
2022/05/24 15:26:03;;;;;;;13.77;3.70;;;;;;;;;;4461607;32;20647;-54
2022/05/24 15:28:31;;;;;;;4.68;3.28;;;;;;;;;;4460833;32;20250;-53
2022/05/24 15:30:57;;;;;;;13.48;2.90;;;;;;;;;;4460234;32;20212;-54
2022/05/24 15:33:22;;;;;;;16.90;4.37;;;;;;;;;;4462016;32;20331;-55
2022/05/24 15:35:48;;;;;;;10.43;5.30;;;;;;;;;;4461199;32;20201;-55
2022/05/24 15:38:16;;;;;;;11.38;4.80;;;;;;;;;;4463182;32;20228;-55
2022/05/24 15:40:41;;;;;;;13.77;5.25;;;;;;;;;;4462780;32;20208;-54
2022/05/24 15:43:08;;;;;;;11.75;5.07;;;;;;;;;;4451661;32;20285;-55
2022/05/24 15:45:34;;;;;;;10.50;4.47;;;;;;;;;;4452546;32;20283;-55
2022/05/24 15:48:00;;;;;;;19.48;6.87;;;;;;;;;;4451655;32;20255;-55
2022/05/24 15:50:26;;;;;;;20.70;6.00;;;;;;;;;;4451217;32;20314;-55
2022/05/24 15:52:52;;;;;;;8.93;4.15;;;;;;;;;;4450259;32;20264;-54
2022/05/24 15:55:18;;;;;;;8.40;3.65;;;;;;;;;;4454545;32;20719;-54